MET'MAP v2.0
soon released !

Expected late october,
this new version will be
more efficient, smarter,
and hosted on a brand new
server x3 powerfull...
...and still free !


Not compatible ?
Try the mobile version !

LOG IN : | Subscribe | Disclaimer | Who is Orbifly ? |
ICAO code :

TAF - LFOA Avord - 05 Dec 2019 18:54 UTC
Data Sources :     NOAA   


- Airport Elevation : 580 ft
- No reported NOTAMs.


LFOA - Avord

Latest METAR recorded : 2019/12/05 17:30 LFOA 051730Z AUTO 10005KT 4200 BR NSC 00/M00 Q1023 TEMPO 0600 FZFG VV///
NO TAF


MET'MAP, your aeronautical weather chart ! - Copyright ORBIFLY December 2007

Programming & Development : Alexandra Zaïnal
Co-Developer : Marc-Olivier Méhu
Technical & hardware support : Manuel Goepfert
Concept & Financing : Baudouin d'Aumeries